createdAt,value
2024-02-28T00:02:05.621Z,100737.28
2024-02-28T00:04:32.520Z,100736.78
2024-02-28T00:06:59.786Z,100752.63
2024-02-28T00:09:26.912Z,100753.84
2024-02-28T00:11:53.855Z,100760.22
2024-02-28T00:14:20.871Z,100760.16
2024-02-28T00:16:49.339Z,100758.47
2024-02-28T00:19:16.401Z,100756.22
2024-02-28T00:21:43.604Z,100764.78
2024-02-28T00:24:10.862Z,100772.41
2024-02-28T00:26:41.754Z,100780.72
2024-02-28T00:29:08.623Z,100790.66
2024-02-28T00:31:35.533Z,100780.25
2024-02-28T00:34:03.671Z,100781.59
2024-02-28T00:36:39.674Z,100790.44
2024-02-28T00:39:14.960Z,100790.69
2024-02-28T00:41:41.817Z,100798.56
2024-02-28T00:44:08.722Z,100803.59
2024-02-28T00:46:35.564Z,100803.34
2024-02-28T00:49:02.501Z,100811.19
2024-02-28T00:51:29.475Z,100824.38
2024-02-28T00:53:56.429Z,100825.84
2024-02-28T00:56:25.593Z,100829.13
2024-02-28T00:58:52.528Z,100833.75
2024-02-28T01:01:19.456Z,100832.44
2024-02-28T01:03:46.617Z,100834.25
2024-02-28T01:06:13.526Z,100829.44
2024-02-28T01:08:41.512Z,100826.63
2024-02-28T01:11:08.426Z,100825.13
2024-02-28T01:13:35.341Z,100824.91
2024-02-28T01:16:02.360Z,100829.16
2024-02-28T01:18:31.923Z,100835.75
2024-02-28T01:21:00.346Z,100828.44
2024-02-28T01:23:27.440Z,100823.59
2024-02-28T01:25:54.259Z,100820.72
2024-02-28T01:28:21.275Z,100819.03
2024-02-28T01:30:48.216Z,100820.63
2024-02-28T01:33:15.297Z,100822.81
2024-02-28T01:35:42.162Z,100815.00
2024-02-28T01:38:09.101Z,100817.69
2024-02-28T01:40:36.106Z,100822.81
2024-02-28T01:43:09.661Z,100826.56
2024-02-28T01:45:37.261Z,100814.66
2024-02-28T01:48:07.896Z,100819.75
2024-02-28T01:50:34.903Z,100816.41
2024-02-28T01:53:02.826Z,100826.34
2024-02-28T01:55:29.834Z,100833.66
2024-02-28T01:57:57.350Z,100829.00
2024-02-28T02:00:26.290Z,100836.38
2024-02-28T02:02:53.150Z,100832.63
2024-02-28T02:05:22.254Z,100834.63
2024-02-28T02:07:50.085Z,100832.88
2024-02-28T02:10:17.093Z,100834.91
2024-02-28T02:12:44.004Z,100830.81
2024-02-28T02:15:11.494Z,100841.59
2024-02-28T02:17:38.542Z,100855.28
2024-02-28T02:20:07.213Z,100860.28
2024-02-28T02:22:40.193Z,100849.50
2024-02-28T02:25:07.678Z,100864.28
2024-02-28T02:27:34.576Z,100862.41
2024-02-28T02:30:02.431Z,100861.75
2024-02-28T02:32:29.879Z,100857.50
2024-02-28T02:34:57.090Z,100852.28
2024-02-28T02:37:23.974Z,100863.50
2024-02-28T02:39:50.920Z,100863.47
2024-02-28T02:42:18.828Z,100865.50
2024-02-28T02:44:45.858Z,100860.25
2024-02-28T02:47:12.726Z,100864.81
2024-02-28T02:49:39.604Z,100870.59
2024-02-28T02:52:06.723Z,100865.47
2024-02-28T02:54:33.785Z,100877.34
2024-02-28T02:57:00.712Z,100878.06
2024-02-28T02:59:28.326Z,100876.53
2024-02-28T03:01:55.182Z,100876.81
2024-02-28T03:04:22.125Z,100877.88
2024-02-28T03:06:50.069Z,100873.09
2024-02-28T03:09:17.046Z,100883.78
2024-02-28T03:11:44.350Z,100882.75
2024-02-28T03:14:11.312Z,100887.78
2024-02-28T03:16:42.837Z,100893.91
2024-02-28T03:19:11.892Z,100894.19
2024-02-28T03:21:39.001Z,100892.19
2024-02-28T03:24:06.158Z,100893.47
2024-02-28T03:26:33.074Z,100900.19
2024-02-28T03:29:00.724Z,100908.03
2024-02-28T03:31:28.719Z,100912.94
2024-02-28T03:33:56.050Z,100909.94
2024-02-28T03:36:23.082Z,100907.13
2024-02-28T03:38:49.995Z,100913.22
2024-02-28T03:41:16.862Z,100917.03
2024-02-28T03:43:43.856Z,100912.00
2024-02-28T03:46:10.747Z,100927.91
2024-02-28T03:48:37.781Z,100920.84
2024-02-28T03:51:05.610Z,100921.03
2024-02-28T03:53:33.389Z,100922.53
2024-02-28T03:56:00.300Z,100934.16
2024-02-28T03:58:27.200Z,100935.28
2024-02-28T04:00:54.218Z,100933.38
2024-02-28T04:03:22.109Z,100934.09
2024-02-28T04:05:48.949Z,100936.09
2024-02-28T04:08:15.949Z,100947.00
2024-02-28T04:10:42.879Z,100952.78
2024-02-28T04:13:10.430Z,100952.03
2024-02-28T04:15:38.728Z,100952.47
2024-02-28T04:18:06.139Z,100954.91
2024-02-28T04:20:33.569Z,100951.09
2024-02-28T04:23:00.759Z,100949.94
2024-02-28T04:25:27.581Z,100958.16
2024-02-28T04:27:54.605Z,100955.50
2024-02-28T04:30:21.636Z,100963.28
2024-02-28T04:32:48.637Z,100968.03
2024-02-28T04:35:19.668Z,100962.63
2024-02-28T04:37:50.111Z,100965.59
2024-02-28T04:40:17.155Z,100965.59
2024-02-28T04:42:46.792Z,100970.69
2024-02-28T04:45:14.141Z,100972.06
2024-02-28T04:47:44.310Z,100977.59
2024-02-28T04:50:12.674Z,100980.88
2024-02-28T04:52:39.751Z,100976.72
2024-02-28T04:55:09.381Z,100986.59
2024-02-28T04:57:36.702Z,100988.59
2024-02-28T05:00:04.855Z,100992.63
2024-02-28T05:02:31.865Z,100993.38
2024-02-28T05:04:59.888Z,100996.41
2024-02-28T05:07:26.902Z,100995.13
2024-02-28T05:09:53.871Z,100995.69
2024-02-28T05:12:20.750Z,100996.16
2024-02-28T05:14:47.677Z,101002.22
2024-02-28T05:17:14.503Z,100995.63
2024-02-28T05:19:42.220Z,101003.97
2024-02-28T05:22:12.352Z,101003.69
2024-02-28T05:24:39.402Z,100997.84
2024-02-28T05:27:06.191Z,101012.22
2024-02-28T05:29:33.106Z,101003.88
2024-02-28T05:32:00.025Z,101015.28
2024-02-28T05:34:26.936Z,101002.06
2024-02-28T05:36:53.987Z,101014.44
2024-02-28T05:39:21.644Z,101017.63
2024-02-28T05:41:48.547Z,101017.38
2024-02-28T05:44:16.336Z,101014.00
2024-02-28T05:46:43.598Z,101029.94
2024-02-28T05:49:10.752Z,101042.00
2024-02-28T05:51:37.720Z,101035.19
2024-02-28T05:54:04.928Z,101040.94
2024-02-28T05:56:31.917Z,101041.44
2024-02-28T05:58:59.043Z,101051.78
2024-02-28T06:01:26.133Z,101059.06
2024-02-28T06:03:53.700Z,101057.34
2024-02-28T06:06:20.692Z,101064.34
2024-02-28T06:08:48.418Z,101067.59
2024-02-28T06:11:15.414Z,101067.31
2024-02-28T06:13:42.701Z,101074.59
2024-02-28T06:16:14.846Z,101079.69
2024-02-28T06:18:41.742Z,101080.63
2024-02-28T06:21:08.832Z,101084.19
2024-02-28T06:23:35.980Z,101089.72
2024-02-28T06:26:03.156Z,101090.47
2024-02-28T06:28:30.097Z,101088.47
2024-02-28T06:30:57.013Z,101097.56
2024-02-28T06:33:23.998Z,101090.47
2024-02-28T06:35:51.029Z,101100.84
2024-02-28T06:38:17.907Z,101100.34
2024-02-28T06:40:44.809Z,101107.13
2024-02-28T06:43:11.840Z,101104.66
2024-02-28T06:45:38.982Z,101114.03
2024-02-28T06:48:06.861Z,101112.50
2024-02-28T06:50:33.824Z,101119.88
2024-02-28T06:53:00.748Z,101121.13
2024-02-28T06:55:27.569Z,101120.94
2024-02-28T06:57:54.611Z,101122.72
2024-02-28T07:00:22.371Z,101125.78
2024-02-28T07:02:49.279Z,101133.16
2024-02-28T07:05:16.199Z,101132.22
2024-02-28T07:07:43.139Z,101140.03
2024-02-28T07:10:10.418Z,101146.84
2024-02-28T07:12:38.364Z,101144.94
2024-02-28T07:15:05.770Z,101145.69
2024-02-28T07:17:32.816Z,101146.94
2024-02-28T07:19:59.705Z,101156.13
2024-02-28T07:22:26.855Z,101157.19
2024-02-28T07:24:54.032Z,101155.63
2024-02-28T07:27:25.321Z,101157.47
2024-02-28T07:29:52.236Z,101162.06
2024-02-28T07:32:19.091Z,101157.84
2024-02-28T07:34:46.166Z,101167.28
2024-02-28T07:37:13.410Z,101168.00
2024-02-28T07:39:40.404Z,101164.03
2024-02-28T07:42:07.419Z,101171.09
2024-02-28T07:44:34.443Z,101171.41
2024-02-28T07:47:01.705Z,101168.41
2024-02-28T07:49:29.178Z,101182.59
2024-02-28T08:04:51.914Z,101194.03
2024-02-28T08:07:19.432Z,101195.28
2024-02-28T08:09:46.289Z,101199.88
2024-02-28T08:12:13.098Z,101210.31
2024-02-28T08:14:40.140Z,101206.06
2024-02-28T08:17:06.998Z,101214.22
2024-02-28T08:19:36.342Z,101207.25
2024-02-28T08:22:03.460Z,101218.38
2024-02-28T08:24:30.456Z,101215.91
2024-02-28T08:26:57.436Z,101226.63
2024-02-28T08:29:24.253Z,101226.41
2024-02-28T08:31:51.178Z,101225.81
2024-02-28T08:34:19.011Z,101227.75
2024-02-28T08:36:46.007Z,101239.34
2024-02-28T08:39:13.008Z,101232.09
2024-02-28T08:41:39.785Z,101249.25
2024-02-28T08:44:07.633Z,101246.38
2024-02-28T08:46:34.500Z,101247.19
2024-02-28T08:49:01.697Z,101252.31
2024-02-28T08:51:29.543Z,101254.88
2024-02-28T08:53:57.071Z,101249.44
2024-02-28T08:56:25.495Z,101262.81
2024-02-28T08:58:52.481Z,101257.25
2024-02-28T09:01:19.484Z,101268.66
2024-02-28T09:03:46.556Z,101262.41
2024-02-28T09:06:13.509Z,101259.88
2024-02-28T09:08:40.838Z,101271.16
2024-02-28T09:11:08.265Z,101270.75
2024-02-28T09:13:36.758Z,101270.41
2024-02-28T09:16:04.277Z,101265.59
2024-02-28T09:18:31.283Z,101269.00
2024-02-28T09:20:58.226Z,101272.22
2024-02-28T09:23:25.253Z,101273.53
2024-02-28T09:25:52.265Z,101274.25
2024-02-28T09:28:19.316Z,101278.25
2024-02-28T09:30:53.145Z,101264.94
2024-02-28T09:33:21.878Z,101267.72
2024-02-28T09:35:48.933Z,101278.19
2024-02-28T09:38:16.113Z,101278.88
2024-02-28T09:40:43.965Z,101279.09
2024-02-28T09:43:20.734Z,101283.69
2024-02-28T09:45:49.139Z,101283.22
2024-02-28T09:48:18.276Z,101285.22
2024-02-28T09:50:47.001Z,101287.16
2024-02-28T09:53:13.882Z,101284.88
2024-02-28T09:55:40.937Z,101287.59
2024-02-28T09:58:09.580Z,101299.09
2024-02-28T10:00:38.686Z,101297.16
2024-02-28T10:03:06.618Z,101301.31
2024-02-28T10:05:34.854Z,101298.88
2024-02-28T10:08:01.956Z,101306.06
2024-02-28T10:10:29.695Z,101305.91
2024-02-28T10:12:57.557Z,101305.19
2024-02-28T10:15:24.613Z,101303.69
2024-02-28T10:17:51.609Z,101299.31
2024-02-28T10:20:18.683Z,101305.97
2024-02-28T10:22:45.850Z,101311.97
2024-02-28T10:25:12.857Z,101305.81
2024-02-28T10:27:40.666Z,101315.38
2024-02-28T10:30:08.542Z,101307.97
2024-02-28T10:32:38.202Z,101305.47
2024-02-28T10:35:10.458Z,101307.00
2024-02-28T10:37:40.057Z,101314.72
2024-02-28T10:40:09.038Z,101306.50
2024-02-28T10:42:37.880Z,101313.28
2024-02-28T10:45:14.617Z,101313.72
2024-02-28T10:47:51.452Z,101312.94
2024-02-28T10:50:19.046Z,101319.03
2024-02-28T10:52:51.634Z,101325.22
2024-02-28T10:55:26.342Z,101328.19
2024-02-28T10:58:12.286Z,101328.69
2024-02-28T11:00:48.411Z,101332.81
2024-02-28T11:03:18.800Z,101326.78
2024-02-28T11:05:50.300Z,101329.78
2024-02-28T11:08:25.374Z,101326.09
2024-02-28T11:11:05.457Z,101330.94
2024-02-28T11:13:32.636Z,101327.25
2024-02-28T11:16:11.832Z,101334.88
2024-02-28T11:18:50.409Z,101332.34
2024-02-28T11:21:18.217Z,101330.34
2024-02-28T11:23:49.356Z,101336.13
2024-02-28T11:26:17.031Z,101335.75
2024-02-28T11:28:44.217Z,101332.47
2024-02-28T11:31:11.228Z,101333.94
2024-02-28T11:33:39.489Z,101336.16
2024-02-28T11:36:07.543Z,101338.09
2024-02-28T11:38:39.167Z,101338.72
2024-02-28T11:41:08.191Z,101337.75
2024-02-28T11:43:46.935Z,101333.63
2024-02-28T11:46:19.846Z,101335.66
2024-02-28T11:48:47.249Z,101329.06
2024-02-28T11:51:14.247Z,101323.00
2024-02-28T11:53:41.126Z,101325.22
2024-02-28T11:56:09.471Z,101317.88
2024-02-28T11:58:37.066Z,101319.38
2024-02-28T12:01:04.486Z,101322.50
2024-02-28T12:03:32.449Z,101315.00
2024-02-28T12:06:00.726Z,101301.16
2024-02-28T12:08:30.420Z,101307.56
2024-02-28T12:11:07.670Z,101298.84
2024-02-28T12:13:34.954Z,101299.94
2024-02-28T12:16:02.721Z,101288.69
2024-02-28T12:18:30.497Z,101296.75
2024-02-28T12:20:57.485Z,101290.72
2024-02-28T12:23:24.466Z,101292.69
2024-02-28T12:25:51.413Z,101301.06
2024-02-28T12:28:18.331Z,101290.59
2024-02-28T12:30:45.412Z,101297.81
2024-02-28T12:33:15.464Z,101302.00
2024-02-28T12:35:43.488Z,101303.63
2024-02-28T12:38:11.184Z,101305.75
2024-02-28T12:40:38.208Z,101315.81
2024-02-28T12:43:05.461Z,101311.88
2024-02-28T12:45:32.776Z,101312.44
2024-02-28T12:47:59.970Z,101306.41
2024-02-28T12:50:27.360Z,101307.25
2024-02-28T12:52:55.142Z,101313.81
2024-02-28T12:55:24.997Z,101307.69
2024-02-28T12:57:52.094Z,101305.19
2024-02-28T13:00:19.481Z,101313.34
2024-02-28T13:02:46.602Z,101296.81
2024-02-28T13:05:16.989Z,101300.13
2024-02-28T13:07:44.310Z,101299.59
2024-02-28T13:10:11.437Z,101305.19
2024-02-28T13:12:39.989Z,101300.38
2024-02-28T13:15:09.184Z,101296.28
2024-02-28T13:17:36.323Z,101292.63
2024-02-28T13:20:04.724Z,101292.63
2024-02-28T13:22:32.091Z,101286.03
2024-02-28T13:24:59.020Z,101293.94
2024-02-28T13:27:26.150Z,101294.38
2024-02-28T13:29:53.036Z,101282.91
2024-02-28T13:32:20.149Z,101292.31
2024-02-28T13:34:49.671Z,101287.09
2024-02-28T13:37:17.223Z,101285.16
2024-02-28T13:39:45.151Z,101280.03
2024-02-28T13:42:12.413Z,101280.78
2024-02-28T13:44:39.610Z,101283.84
2024-02-28T13:47:06.855Z,101272.47
2024-02-28T13:49:33.825Z,101278.38
2024-02-28T13:52:01.793Z,101276.22
2024-02-28T13:54:28.884Z,101277.22
2024-02-28T13:56:55.838Z,101270.44
2024-02-28T13:59:22.743Z,101274.63
2024-02-28T14:01:50.373Z,101274.97
2024-02-28T14:04:17.646Z,101276.56
2024-02-28T14:06:44.818Z,101270.97
2024-02-28T14:09:12.718Z,101271.84
2024-02-28T14:11:39.765Z,101270.56
2024-02-28T14:14:07.015Z,101281.56
2024-02-28T14:16:34.877Z,101280.06
2024-02-28T14:19:01.807Z,101274.91
2024-02-28T14:21:28.929Z,101276.72
2024-02-28T14:23:55.884Z,101271.69
2024-02-28T14:26:25.490Z,101280.38
2024-02-28T14:28:52.868Z,101272.53
2024-02-28T14:31:20.551Z,101284.41
2024-02-28T14:33:47.452Z,101282.88
2024-02-28T14:36:15.363Z,101287.16
2024-02-28T14:38:44.686Z,101278.59
2024-02-28T14:41:13.896Z,101286.16
2024-02-28T14:43:41.321Z,101283.09
2024-02-28T14:46:09.816Z,101289.44
2024-02-28T14:48:36.977Z,101289.44
2024-02-28T14:51:04.481Z,101280.38
2024-02-28T14:53:31.781Z,101284.94
2024-02-28T14:55:58.795Z,101280.13
2024-02-28T14:58:25.689Z,101283.91
2024-02-28T15:00:52.816Z,101280.38
2024-02-28T15:03:19.953Z,101273.22
2024-02-28T15:05:48.101Z,101278.25
2024-02-28T15:08:15.059Z,101275.75
2024-02-28T15:10:42.285Z,101283.63
2024-02-28T15:13:09.307Z,101284.34
2024-02-28T15:15:38.545Z,101279.34
2024-02-28T15:18:07.846Z,101284.13
2024-02-28T15:20:34.707Z,101282.91
2024-02-28T15:23:01.911Z,101286.16
2024-02-28T15:25:28.826Z,101279.50
2024-02-28T15:27:56.388Z,101275.47
2024-02-28T15:30:23.523Z,101280.50
2024-02-28T15:32:50.804Z,101273.63
2024-02-28T15:35:17.718Z,101280.69
2024-02-28T15:37:44.652Z,101282.25
2024-02-28T15:40:12.506Z,101284.50
2024-02-28T15:42:40.108Z,101273.31
2024-02-28T15:45:07.273Z,101277.13
2024-02-28T15:47:34.624Z,101275.53
2024-02-28T15:50:05.960Z,101278.81
2024-02-28T15:52:32.884Z,101279.84
2024-02-28T15:54:59.955Z,101281.59
2024-02-28T15:57:27.013Z,101280.38
2024-02-28T15:59:53.856Z,101279.81
2024-02-28T16:02:21.018Z,101282.56
2024-02-28T16:04:49.680Z,101280.75
2024-02-28T16:07:17.068Z,101288.66
2024-02-28T16:09:46.155Z,101279.56
2024-02-28T16:12:13.264Z,101284.31
2024-02-28T16:14:40.126Z,101282.28
2024-02-28T16:17:07.585Z,101290.06
2024-02-28T16:19:34.908Z,101286.69
2024-02-28T16:22:02.450Z,101284.34
2024-02-28T16:24:30.461Z,101284.09
2024-02-28T16:26:57.439Z,101290.66
2024-02-28T16:29:24.354Z,101286.56
2024-02-28T16:31:51.877Z,101283.97
2024-02-28T16:34:20.191Z,101278.63
2024-02-28T16:36:48.939Z,101288.91
2024-02-28T16:39:17.542Z,101289.16
2024-02-28T16:41:44.565Z,101283.41
2024-02-28T16:44:11.805Z,101290.59
2024-02-28T16:46:38.754Z,101283.72
2024-02-28T16:49:05.781Z,101289.78
2024-02-28T16:51:32.982Z,101288.81
2024-02-28T16:53:59.889Z,101291.28
2024-02-28T16:56:26.951Z,101286.72
2024-02-28T16:58:54.048Z,101289.03
2024-02-28T17:01:23.909Z,101296.72
2024-02-28T17:03:50.787Z,101296.22
2024-02-28T17:06:17.789Z,101298.75
2024-02-28T17:08:45.375Z,101296.41
2024-02-28T17:11:13.549Z,101297.66
2024-02-28T17:13:40.865Z,101290.22
2024-02-28T17:16:08.320Z,101308.72
2024-02-28T17:18:35.738Z,101308.16
2024-02-28T17:21:04.120Z,101305.97
2024-02-28T17:23:31.826Z,101311.00
2024-02-28T17:26:00.144Z,101309.41
2024-02-28T17:28:28.360Z,101304.03
2024-02-28T17:30:55.376Z,101297.44
2024-02-28T17:33:24.506Z,101298.97
2024-02-28T17:35:51.470Z,101306.56
2024-02-28T17:38:18.572Z,101304.56
2024-02-28T17:40:45.872Z,101303.00
2024-02-28T17:43:12.875Z,101305.31
2024-02-28T17:45:41.024Z,101301.25
2024-02-28T17:48:08.421Z,101308.88
2024-02-28T17:50:36.131Z,101310.41
2024-02-28T17:53:03.290Z,101309.91
2024-02-28T17:55:30.645Z,101310.47
2024-02-28T17:57:57.966Z,101312.75
2024-02-28T18:00:28.212Z,101314.22
2024-02-28T18:02:55.740Z,101319.53
2024-02-28T18:05:25.110Z,101325.09
2024-02-28T18:07:54.403Z,101319.63
2024-02-28T18:10:22.434Z,101320.56
2024-02-28T18:12:49.601Z,101327.19
2024-02-28T18:15:17.742Z,101326.78
2024-02-28T18:17:45.700Z,101334.59
2024-02-28T18:20:13.134Z,101327.28
2024-02-28T18:22:40.260Z,101329.53
2024-02-28T18:25:07.936Z,101328.06
2024-02-28T18:27:35.695Z,101323.44
2024-02-28T18:30:03.150Z,101325.47
2024-02-28T18:32:31.997Z,101323.44
2024-02-28T18:35:00.687Z,101328.47
2024-02-28T18:37:29.682Z,101325.00
2024-02-28T18:39:56.911Z,101313.28
2024-02-28T18:42:24.059Z,101323.69
2024-02-28T18:44:56.667Z,101321.16
2024-02-28T18:47:27.217Z,101316.50
2024-02-28T18:49:54.796Z,101334.53
2024-02-28T18:52:22.316Z,101328.47
2024-02-28T18:54:49.381Z,101333.81
2024-02-28T18:57:16.430Z,101326.66
2024-02-28T18:59:43.788Z,101327.66
2024-02-28T19:02:11.208Z,101334.75
2024-02-28T19:04:38.371Z,101336.84
2024-02-28T19:07:05.844Z,101340.06
2024-02-28T19:09:34.229Z,101339.78
2024-02-28T19:12:04.263Z,101333.91
2024-02-28T19:14:31.472Z,101330.31
2024-02-28T19:16:58.328Z,101332.41
2024-02-28T19:19:26.779Z,101333.28
2024-02-28T19:21:54.096Z,101338.50
2024-02-28T19:24:22.923Z,101336.44
2024-02-28T19:26:49.978Z,101339.38
2024-02-28T19:29:16.976Z,101337.28
2024-02-28T19:31:43.917Z,101329.47
2024-02-28T19:34:11.034Z,101333.53
2024-02-28T19:36:38.349Z,101331.97
2024-02-28T19:39:05.596Z,101329.97
2024-02-28T19:41:32.992Z,101331.97
2024-02-28T19:44:00.414Z,101334.03
2024-02-28T19:46:27.734Z,101340.91
2024-02-28T19:48:54.961Z,101346.47
2024-02-28T19:51:21.968Z,101337.00
2024-02-28T19:53:48.999Z,101344.41
2024-02-28T19:56:16.233Z,101348.66
2024-02-28T19:58:48.596Z,101348.06
2024-02-28T20:01:15.947Z,101337.69
2024-02-28T20:03:43.060Z,101339.94
2024-02-28T20:06:10.392Z,101344.03
2024-02-28T20:08:38.057Z,101350.38
2024-02-28T20:11:06.516Z,101349.88
2024-02-28T20:13:33.753Z,101353.91
2024-02-28T20:16:00.947Z,101352.41
2024-02-28T20:18:27.965Z,101351.91
2024-02-28T20:20:55.143Z,101348.66
2024-02-28T20:23:22.318Z,101359.00
2024-02-28T20:25:50.184Z,101355.94
2024-02-28T20:28:22.372Z,101355.09
2024-02-28T20:30:51.091Z,101353.84
2024-02-28T20:33:19.638Z,101354.63
2024-02-28T20:35:46.734Z,101351.34
2024-02-28T20:38:13.865Z,101356.38
2024-02-28T20:40:41.247Z,101353.09
2024-02-28T20:43:08.208Z,101352.13
2024-02-28T20:45:36.111Z,101349.81
2024-02-28T20:48:04.395Z,101353.84
2024-02-28T20:50:32.295Z,101359.72
2024-02-28T20:53:01.405Z,101364.22
2024-02-28T20:55:29.755Z,101365.53
2024-02-28T20:57:56.984Z,101366.50
2024-02-28T21:00:25.447Z,101362.00
2024-02-28T21:02:53.093Z,101365.00
2024-02-28T21:05:20.129Z,101362.50
2024-02-28T21:07:52.968Z,101360.66
2024-02-28T21:10:21.657Z,101361.94
2024-02-28T21:12:48.943Z,101362.91
2024-02-28T21:15:16.906Z,101357.34
2024-02-28T21:17:44.435Z,101361.38
2024-02-28T21:20:11.883Z,101358.31
2024-02-28T21:22:41.114Z,101367.34
2024-02-28T21:25:08.703Z,101363.22
2024-02-28T21:27:36.672Z,101368.75
2024-02-28T21:30:06.191Z,101363.88
2024-02-28T21:32:33.678Z,101367.69
2024-02-28T21:35:00.724Z,101358.34
2024-02-28T21:37:27.659Z,101351.28
2024-02-28T21:39:54.751Z,101358.56
2024-02-28T21:42:22.017Z,101364.13
2024-02-28T21:44:48.967Z,101357.63
2024-02-28T21:47:15.976Z,101353.78
2024-02-28T21:49:43.369Z,101362.88
2024-02-28T21:52:12.080Z,101355.28
2024-02-28T21:54:43.445Z,101356.25
2024-02-28T21:57:11.463Z,101351.28
2024-02-28T21:59:38.406Z,101355.09
2024-02-28T22:02:05.782Z,101354.34
2024-02-28T22:04:32.754Z,101364.19
2024-02-28T22:06:59.835Z,101355.84
2024-02-28T22:09:26.764Z,101355.09
2024-02-28T22:11:53.744Z,101362.97
2024-02-28T22:14:20.592Z,101356.63
2024-02-28T22:16:47.944Z,101360.66
2024-02-28T22:19:15.283Z,101356.63
2024-02-28T22:21:42.383Z,101355.09
2024-02-28T22:24:09.901Z,101351.06
2024-02-28T22:26:36.996Z,101352.59
2024-02-28T22:29:04.950Z,101353.56
2024-02-28T22:31:31.931Z,101358.56
2024-02-28T22:33:58.755Z,101352.22
2024-02-28T22:36:25.703Z,101354.25
2024-02-28T22:38:53.845Z,101360.09
2024-02-28T22:41:24.946Z,101348.94
2024-02-28T22:43:52.113Z,101347.16
2024-02-28T22:46:19.364Z,101350.69
2024-02-28T22:48:46.333Z,101349.19
2024-02-28T22:51:13.195Z,101347.63
2024-02-28T22:53:41.119Z,101351.19
2024-02-28T22:56:07.925Z,101346.94
2024-02-28T22:58:34.832Z,101347.00
2024-02-28T23:01:01.978Z,101349.22
2024-02-28T23:03:28.944Z,101345.25
2024-02-28T23:05:55.949Z,101335.53
2024-02-28T23:08:22.980Z,101333.69
2024-02-28T23:10:50.213Z,101338.69
2024-02-28T23:13:17.228Z,101338.69
2024-02-28T23:15:44.537Z,101344.06
2024-02-28T23:18:12.171Z,101339.06
2024-02-28T23:20:40.240Z,101340.22
2024-02-28T23:23:07.559Z,101337.72
2024-02-28T23:25:36.105Z,101330.91
2024-02-28T23:28:04.174Z,101331.47
2024-02-28T23:30:32.020Z,101332.75
2024-02-28T23:33:01.498Z,101329.38
2024-02-28T23:35:29.666Z,101329.66
2024-02-28T23:37:56.928Z,101332.25
2024-02-28T23:40:23.935Z,101316.88
2024-02-28T23:42:51.885Z,101321.41
2024-02-28T23:45:18.758Z,101320.84
2024-02-28T23:47:45.612Z,101317.28
2024-02-28T23:50:12.959Z,101316.78
2024-02-28T23:52:39.930Z,101314.59
2024-02-28T23:55:07.205Z,101307.56
2024-02-28T23:57:34.276Z,101308.13
